sensor_id;sensor_type;location;lat;lon;timestamp;P1;durP1;ratioP1;P2;durP2;ratioP2
30888;SDS011;51092;50.874;7.024;2022-09-03T00:00:06;3.10;;;1.92;;
30888;SDS011;51092;50.874;7.024;2022-09-03T00:01:12;4.32;;;2.33;;
30888;SDS011;51092;50.874;7.024;2022-09-03T00:02:18;2.63;;;1.67;;
30888;SDS011;51092;50.874;7.024;2022-09-03T00:03:25;3.67;;;2.03;;
30888;SDS011;51092;50.874;7.024;2022-09-03T00:04:31;2.47;;;1.40;;
30888;SDS011;51092;50.874;7.024;2022-09-03T00:05:42;2.50;;;2.00;;
30888;SDS011;51092;50.874;7.024;2022-09-03T00:06:50;3.10;;;1.77;;
30888;SDS011;51092;50.874;7.024;2022-09-03T00:08:00;2.30;;;1.48;;
30888;SDS011;51092;50.874;7.024;2022-09-03T00:09:08;4.45;;;1.70;;
30888;SDS011;51092;50.874;7.024;2022-09-03T00:10:18;3.63;;;1.63;;
30888;SDS011;51092;50.874;7.024;2022-09-03T00:11:25;4.05;;;2.13;;
30888;SDS011;51092;50.874;7.024;2022-09-03T00:12:32;4.20;;;1.83;;
30888;SDS011;51092;50.874;7.024;2022-09-03T00:13:41;4.35;;;1.90;;
30888;SDS011;51092;50.874;7.024;2022-09-03T00:14:48;3.17;;;1.90;;
30888;SDS011;51092;50.874;7.024;2022-09-03T00:15:52;6.03;;;2.30;;
30888;SDS011;51092;50.874;7.024;2022-09-03T00:16:59;3.65;;;1.67;;
30888;SDS011;51092;50.874;7.024;2022-09-03T00:18:06;2.47;;;1.65;;
30888;SDS011;51092;50.874;7.024;2022-09-03T00:19:15;4.20;;;1.50;;
30888;SDS011;51092;50.874;7.024;2022-09-03T00:20:21;4.20;;;1.60;;
30888;SDS011;51092;50.874;7.024;2022-09-03T00:21:33;6.43;;;1.52;;
30888;SDS011;51092;50.874;7.024;2022-09-03T00:22:38;3.47;;;1.67;;
30888;SDS011;51092;50.874;7.024;2022-09-03T00:23:44;2.17;;;1.52;;
30888;SDS011;51092;50.874;7.024;2022-09-03T00:24:50;2.70;;;1.58;;
30888;SDS011;51092;50.874;7.024;2022-09-03T00:25:54;3.30;;;1.60;;
30888;SDS011;51092;50.874;7.024;2022-09-03T00:27:02;3.47;;;1.95;;
30888;SDS011;51092;50.874;7.024;2022-09-03T00:29:16;4.93;;;1.77;;
30888;SDS011;51092;50.874;7.024;2022-09-03T00:30:24;4.38;;;1.60;;
30888;SDS011;51092;50.874;7.024;2022-09-03T00:31:28;2.28;;;1.67;;
30888;SDS011;51092;50.874;7.024;2022-09-03T00:32:36;4.03;;;1.77;;
30888;SDS011;51092;50.874;7.024;2022-09-03T00:33:42;3.72;;;1.65;;
30888;SDS011;51092;50.874;7.024;2022-09-03T00:34:48;3.05;;;1.48;;
30888;SDS011;51092;50.874;7.024;2022-09-03T00:36:01;6.40;;;1.40;;
30888;SDS011;51092;50.874;7.024;2022-09-03T00:37:08;2.65;;;1.73;;
30888;SDS011;51092;50.874;7.024;2022-09-03T00:38:10;2.47;;;1.50;;
30888;SDS011;51092;50.874;7.024;2022-09-03T00:39:14;2.45;;;1.80;;
30888;SDS011;51092;50.874;7.024;2022-09-03T00:40:31;3.53;;;1.40;;
30888;SDS011;51092;50.874;7.024;2022-09-03T00:41:46;2.45;;;1.40;;
30888;SDS011;51092;50.874;7.024;2022-09-03T00:43:00;3.30;;;1.83;;
30888;SDS011;51092;50.874;7.024;2022-09-03T00:45:45;2.15;;;1.50;;
30888;SDS011;51092;50.874;7.024;2022-09-03T00:46:52;2.50;;;1.50;;
30888;SDS011;51092;50.874;7.024;2022-09-03T00:48:02;2.33;;;1.63;;
30888;SDS011;51092;50.874;7.024;2022-09-03T00:49:18;3.35;;;1.50;;
30888;SDS011;51092;50.874;7.024;2022-09-03T00:50:32;2.67;;;1.67;;
30888;SDS011;51092;50.874;7.024;2022-09-03T00:51:47;1.75;;;1.33;;
30888;SDS011;51092;50.874;7.024;2022-09-03T00:52:56;9.27;;;1.55;;
30888;SDS011;51092;50.874;7.024;2022-09-03T00:54:07;2.85;;;1.80;;
30888;SDS011;51092;50.874;7.024;2022-09-03T00:55:20;2.53;;;1.42;;
30888;SDS011;51092;50.874;7.024;2022-09-03T00:56:29;4.20;;;1.58;;
30888;SDS011;51092;50.874;7.024;2022-09-03T00:57:43;2.10;;;1.50;;
30888;SDS011;51092;50.874;7.024;2022-09-03T00:58:57;5.95;;;1.33;;
30888;SDS011;51092;50.874;7.024;2022-09-03T01:00:08;3.08;;;1.65;;
30888;SDS011;51092;50.874;7.024;2022-09-03T01:01:14;2.10;;;1.48;;
30888;SDS011;51092;50.874;7.024;2022-09-03T01:02:22;3.05;;;1.60;;
30888;SDS011;51092;50.874;7.024;2022-09-03T01:03:34;2.63;;;1.40;;
30888;SDS011;51092;50.874;7.024;2022-09-03T01:04:47;5.82;;;1.60;;
30888;SDS011;51092;50.874;7.024;2022-09-03T01:06:02;1.45;;;1.27;;
30888;SDS011;51092;50.874;7.024;2022-09-03T01:07:12;4.95;;;1.77;;
30888;SDS011;51092;50.874;7.024;2022-09-03T01:08:29;2.40;;;1.20;;
30888;SDS011;51092;50.874;7.024;2022-09-03T01:09:52;4.22;;;1.45;;
30888;SDS011;51092;50.874;7.024;2022-09-03T01:11:02;2.47;;;1.45;;
30888;SDS011;51092;50.874;7.024;2022-09-03T01:12:14;3.53;;;1.67;;
30888;SDS011;51092;50.874;7.024;2022-09-03T01:13:27;2.13;;;1.58;;
30888;SDS011;51092;50.874;7.024;2022-09-03T01:14:37;4.80;;;1.75;;
30888;SDS011;51092;50.874;7.024;2022-09-03T01:15:50;2.55;;;1.58;;
30888;SDS011;51092;50.874;7.024;2022-09-03T01:17:03;6.65;;;1.90;;
30888;SDS011;51092;50.874;7.024;2022-09-03T01:18:15;5.00;;;1.80;;
30888;SDS011;51092;50.874;7.024;2022-09-03T01:19:39;3.13;;;1.65;;
30888;SDS011;51092;50.874;7.024;2022-09-03T01:20:57;8.10;;;2.35;;
30888;SDS011;51092;50.874;7.024;2022-09-03T01:22:19;3.15;;;1.52;;
30888;SDS011;51092;50.874;7.024;2022-09-03T01:23:47;5.55;;;1.85;;
30888;SDS011;51092;50.874;7.024;2022-09-03T01:25:11;4.18;;;1.95;;
30888;SDS011;51092;50.874;7.024;2022-09-03T01:26:23;2.53;;;1.63;;
30888;SDS011;51092;50.874;7.024;2022-09-03T01:27:35;2.92;;;1.77;;
30888;SDS011;51092;50.874;7.024;2022-09-03T01:28:48;7.28;;;1.80;;
30888;SDS011;51092;50.874;7.024;2022-09-03T01:30:02;2.42;;;1.45;;
30888;SDS011;51092;50.874;7.024;2022-09-03T01:31:08;1.92;;;1.50;;
30888;SDS011;51092;50.874;7.024;2022-09-03T01:32:21;7.35;;;2.03;;
30888;SDS011;51092;50.874;7.024;2022-09-03T01:33:32;3.85;;;1.70;;
30888;SDS011;51092;50.874;7.024;2022-09-03T01:34:42;4.03;;;1.90;;
30888;SDS011;51092;50.874;7.024;2022-09-03T01:36:59;3.15;;;1.40;;
30888;SDS011;51092;50.874;7.024;2022-09-03T01:38:12;3.55;;;2.28;;
30888;SDS011;51092;50.874;7.024;2022-09-03T01:39:26;4.57;;;2.05;;
30888;SDS011;51092;50.874;7.024;2022-09-03T01:40:34;4.88;;;2.00;;
30888;SDS011;51092;50.874;7.024;2022-09-03T01:41:45;3.45;;;1.90;;
30888;SDS011;51092;50.874;7.024;2022-09-03T01:43:25;1.50;;;1.40;;
30888;SDS011;51092;50.874;7.024;2022-09-03T01:44:41;4.00;;;2.13;;
30888;SDS011;51092;50.874;7.024;2022-09-03T01:46:03;4.63;;;1.70;;
30888;SDS011;51092;50.874;7.024;2022-09-03T01:47:15;3.72;;;1.90;;
30888;SDS011;51092;50.874;7.024;2022-09-03T01:48:33;3.28;;;1.95;;
30888;SDS011;51092;50.874;7.024;2022-09-03T01:49:47;5.93;;;1.90;;
30888;SDS011;51092;50.874;7.024;2022-09-03T01:51:00;3.28;;;1.75;;
30888;SDS011;51092;50.874;7.024;2022-09-03T01:52:13;4.55;;;1.88;;
30888;SDS011;51092;50.874;7.024;2022-09-03T01:53:24;5.18;;;2.03;;
30888;SDS011;51092;50.874;7.024;2022-09-03T01:54:44;5.75;;;1.90;;
30888;SDS011;51092;50.874;7.024;2022-09-03T01:55:59;3.42;;;2.08;;
30888;SDS011;51092;50.874;7.024;2022-09-03T01:58:41;3.38;;;2.17;;
30888;SDS011;51092;50.874;7.024;2022-09-03T01:59:48;4.20;;;1.90;;
30888;SDS011;51092;50.874;7.024;2022-09-03T02:01:00;3.58;;;2.15;;
30888;SDS011;51092;50.874;7.024;2022-09-03T02:02:06;7.38;;;2.28;;
30888;SDS011;51092;50.874;7.024;2022-09-03T02:03:19;3.95;;;2.08;;
30888;SDS011;51092;50.874;7.024;2022-09-03T02:04:24;2.45;;;1.75;;
30888;SDS011;51092;50.874;7.024;2022-09-03T02:05:26;3.53;;;2.25;;
30888;SDS011;51092;50.874;7.024;2022-09-03T02:06:29;3.00;;;1.45;;
30888;SDS011;51092;50.874;7.024;2022-09-03T02:07:32;5.60;;;1.70;;
30888;SDS011;51092;50.874;7.024;2022-09-03T02:08:36;3.88;;;2.17;;
30888;SDS011;51092;50.874;7.024;2022-09-03T02:09:38;3.05;;;1.83;;
30888;SDS011;51092;50.874;7.024;2022-09-03T02:10:41;3.05;;;1.80;;
30888;SDS011;51092;50.874;7.024;2022-09-03T02:11:47;4.53;;;1.80;;
30888;SDS011;51092;50.874;7.024;2022-09-03T02:12:55;5.15;;;1.63;;
30888;SDS011;51092;50.874;7.024;2022-09-03T02:14:01;6.10;;;1.73;;
30888;SDS011;51092;50.874;7.024;2022-09-03T02:15:09;2.70;;;1.70;;
30888;SDS011;51092;50.874;7.024;2022-09-03T02:16:13;5.55;;;1.58;;
30888;SDS011;51092;50.874;7.024;2022-09-03T02:17:19;3.22;;;1.73;;
30888;SDS011;51092;50.874;7.024;2022-09-03T02:18:21;2.33;;;1.63;;
30888;SDS011;51092;50.874;7.024;2022-09-03T02:19:26;6.20;;;1.75;;
30888;SDS011;51092;50.874;7.024;2022-09-03T02:20:29;3.20;;;1.77;;
30888;SDS011;51092;50.874;7.024;2022-09-03T02:21:32;2.03;;;1.42;;
30888;SDS011;51092;50.874;7.024;2022-09-03T02:22:36;4.82;;;2.08;;
30888;SDS011;51092;50.874;7.024;2022-09-03T02:23:40;7.47;;;1.80;;
30888;SDS011;51092;50.874;7.024;2022-09-03T02:24:42;4.47;;;1.70;;
30888;SDS011;51092;50.874;7.024;2022-09-03T02:25:46;2.22;;;1.40;;
30888;SDS011;51092;50.874;7.024;2022-09-03T02:26:52;3.85;;;1.77;;
30888;SDS011;51092;50.874;7.024;2022-09-03T02:27:53;5.45;;;1.80;;
30888;SDS011;51092;50.874;7.024;2022-09-03T02:28:56;4.70;;;1.65;;
30888;SDS011;51092;50.874;7.024;2022-09-03T02:29:57;3.90;;;1.95;;
30888;SDS011;51092;50.874;7.024;2022-09-03T02:31:01;4.60;;;2.45;;
30888;SDS011;51092;50.874;7.024;2022-09-03T02:32:04;2.20;;;1.27;;
30888;SDS011;51092;50.874;7.024;2022-09-03T02:33:06;2.75;;;1.52;;
30888;SDS011;51092;50.874;7.024;2022-09-03T02:34:09;2.40;;;1.10;;
30888;SDS011;51092;50.874;7.024;2022-09-03T02:35:11;6.63;;;1.75;;
30888;SDS011;51092;50.874;7.024;2022-09-03T02:36:13;4.43;;;1.73;;
30888;SDS011;51092;50.874;7.024;2022-09-03T02:37:18;3.45;;;1.67;;
30888;SDS011;51092;50.874;7.024;2022-09-03T02:38:20;5.28;;;1.27;;
30888;SDS011;51092;50.874;7.024;2022-09-03T02:39:25;5.72;;;1.60;;
30888;SDS011;51092;50.874;7.024;2022-09-03T02:40:28;3.50;;;1.10;;
30888;SDS011;51092;50.874;7.024;2022-09-03T02:41:31;3.70;;;1.45;;
30888;SDS011;51092;50.874;7.024;2022-09-03T02:42:33;4.22;;;1.80;;
30888;SDS011;51092;50.874;7.024;2022-09-03T02:43:36;2.22;;;1.40;;
30888;SDS011;51092;50.874;7.024;2022-09-03T02:44:41;2.05;;;1.20;;
30888;SDS011;51092;50.874;7.024;2022-09-03T02:45:49;3.55;;;1.10;;
30888;SDS011;51092;50.874;7.024;2022-09-03T02:46:55;2.90;;;1.40;;
30888;SDS011;51092;50.874;7.024;2022-09-03T02:47:59;2.05;;;1.40;;
30888;SDS011;51092;50.874;7.024;2022-09-03T02:49:01;3.38;;;1.23;;
30888;SDS011;51092;50.874;7.024;2022-09-03T02:50:03;3.25;;;1.13;;
30888;SDS011;51092;50.874;7.024;2022-09-03T02:51:06;2.65;;;1.27;;
30888;SDS011;51092;50.874;7.024;2022-09-03T02:52:09;4.45;;;1.63;;
30888;SDS011;51092;50.874;7.024;2022-09-03T02:53:11;1.48;;;0.98;;
30888;SDS011;51092;50.874;7.024;2022-09-03T02:54:13;3.53;;;1.25;;
30888;SDS011;51092;50.874;7.024;2022-09-03T02:55:17;4.25;;;1.48;;
30888;SDS011;51092;50.874;7.024;2022-09-03T02:56:20;3.53;;;1.30;;
30888;SDS011;51092;50.874;7.024;2022-09-03T02:57:24;4.20;;;1.45;;
30888;SDS011;51092;50.874;7.024;2022-09-03T02:58:27;4.45;;;1.20;;
30888;SDS011;51092;50.874;7.024;2022-09-03T02:59:31;2.92;;;1.50;;
30888;SDS011;51092;50.874;7.024;2022-09-03T03:00:33;2.65;;;1.25;;
30888;SDS011;51092;50.874;7.024;2022-09-03T03:01:35;3.28;;;1.10;;
30888;SDS011;51092;50.874;7.024;2022-09-03T03:02:39;3.10;;;1.20;;
30888;SDS011;51092;50.874;7.024;2022-09-03T03:03:41;1.75;;;1.42;;
30888;SDS011;51092;50.874;7.024;2022-09-03T03:04:44;3.25;;;1.30;;
30888;SDS011;51092;50.874;7.024;2022-09-03T03:05:47;1.48;;;1.20;;
30888;SDS011;51092;50.874;7.024;2022-09-03T03:06:51;1.73;;;1.38;;
30888;SDS011;51092;50.874;7.024;2022-09-03T03:07:53;2.60;;;1.20;;
30888;SDS011;51092;50.874;7.024;2022-09-03T03:08:55;5.97;;;1.05;;
30888;SDS011;51092;50.874;7.024;2022-09-03T03:09:57;3.72;;;1.40;;
30888;SDS011;51092;50.874;7.024;2022-09-03T03:11:00;1.60;;;0.90;;
30888;SDS011;51092;50.874;7.024;2022-09-03T03:12:02;1.52;;;1.20;;
30888;SDS011;51092;50.874;7.024;2022-09-03T03:13:04;2.83;;;1.40;;
30888;SDS011;51092;50.874;7.024;2022-09-03T03:14:05;1.25;;;1.10;;
30888;SDS011;51092;50.874;7.024;2022-09-03T03:15:07;2.35;;;1.40;;
30888;SDS011;51092;50.874;7.024;2022-09-03T03:16:09;1.75;;;1.10;;
30888;SDS011;51092;50.874;7.024;2022-09-03T03:17:12;3.00;;;1.10;;
30888;SDS011;51092;50.874;7.024;2022-09-03T03:18:15;1.95;;;1.20;;
30888;SDS011;51092;50.874;7.024;2022-09-03T03:19:18;3.55;;;1.15;;
30888;SDS011;51092;50.874;7.024;2022-09-03T03:20:20;3.60;;;1.70;;
30888;SDS011;51092;50.874;7.024;2022-09-03T03:21:23;2.97;;;1.20;;
30888;SDS011;51092;50.874;7.024;2022-09-03T03:22:24;2.47;;;1.30;;
30888;SDS011;51092;50.874;7.024;2022-09-03T03:23:27;1.73;;;1.10;;
30888;SDS011;51092;50.874;7.024;2022-09-03T03:24:28;6.18;;;1.50;;
30888;SDS011;51092;50.874;7.024;2022-09-03T03:25:31;5.13;;;1.17;;
30888;SDS011;51092;50.874;7.024;2022-09-03T03:26:33;2.22;;;1.40;;
30888;SDS011;51092;50.874;7.024;2022-09-03T03:27:35;1.98;;;1.33;;
30888;SDS011;51092;50.874;7.024;2022-09-03T03:28:39;2.40;;;1.00;;
30888;SDS011;51092;50.874;7.024;2022-09-03T03:29:42;1.60;;;1.08;;
30888;SDS011;51092;50.874;7.024;2022-09-03T03:30:43;1.60;;;1.40;;
30888;SDS011;51092;50.874;7.024;2022-09-03T03:31:48;5.18;;;1.38;;
30888;SDS011;51092;50.874;7.024;2022-09-03T03:32:51;3.35;;;1.60;;
30888;SDS011;51092;50.874;7.024;2022-09-03T03:33:55;3.55;;;1.50;;
30888;SDS011;51092;50.874;7.024;2022-09-03T03:34:59;1.60;;;1.05;;
30888;SDS011;51092;50.874;7.024;2022-09-03T03:36:05;2.10;;;1.10;;
30888;SDS011;51092;50.874;7.024;2022-09-03T03:37:07;2.05;;;1.40;;
30888;SDS011;51092;50.874;7.024;2022-09-03T03:38:09;3.05;;;1.33;;
30888;SDS011;51092;50.874;7.024;2022-09-03T03:39:12;2.33;;;1.27;;
30888;SDS011;51092;50.874;7.024;2022-09-03T03:40:14;3.72;;;1.30;;
30888;SDS011;51092;50.874;7.024;2022-09-03T03:41:16;3.65;;;1.30;;
30888;SDS011;51092;50.874;7.024;2022-09-03T03:42:21;3.20;;;1.48;;
30888;SDS011;51092;50.874;7.024;2022-09-03T03:43:23;2.83;;;1.67;;
30888;SDS011;51092;50.874;7.024;2022-09-03T03:44:25;2.50;;;1.27;;
30888;SDS011;51092;50.874;7.024;2022-09-03T03:45:27;1.23;;;1.08;;
30888;SDS011;51092;50.874;7.024;2022-09-03T03:46:30;1.70;;;1.13;;
30888;SDS011;51092;50.874;7.024;2022-09-03T03:47:33;2.47;;;1.30;;
30888;SDS011;51092;50.874;7.024;2022-09-03T03:48:37;2.65;;;1.35;;
30888;SDS011;51092;50.874;7.024;2022-09-03T03:49:40;3.25;;;1.42;;
30888;SDS011;51092;50.874;7.024;2022-09-03T03:50:43;1.77;;;1.42;;
30888;SDS011;51092;50.874;7.024;2022-09-03T03:51:45;2.00;;;1.17;;
30888;SDS011;51092;50.874;7.024;2022-09-03T03:52:47;1.38;;;1.20;;
30888;SDS011;51092;50.874;7.024;2022-09-03T03:53:52;3.85;;;1.15;;
30888;SDS011;51092;50.874;7.024;2022-09-03T03:54:56;3.00;;;1.10;;
30888;SDS011;51092;50.874;7.024;2022-09-03T03:55:58;3.83;;;1.52;;
30888;SDS011;51092;50.874;7.024;2022-09-03T03:57:01;2.92;;;1.10;;
30888;SDS011;51092;50.874;7.024;2022-09-03T03:58:03;2.85;;;0.90;;
30888;SDS011;51092;50.874;7.024;2022-09-03T03:59:04;2.20;;;1.15;;
30888;SDS011;51092;50.874;7.024;2022-09-03T04:00:09;2.15;;;1.17;;
30888;SDS011;51092;50.874;7.024;2022-09-03T04:01:13;3.05;;;1.20;;
30888;SDS011;51092;50.874;7.024;2022-09-03T04:02:17;1.67;;;1.17;;
30888;SDS011;51092;50.874;7.024;2022-09-03T04:03:19;2.00;;;1.33;;
30888;SDS011;51092;50.874;7.024;2022-09-03T04:04:21;4.20;;;1.13;;
30888;SDS011;51092;50.874;7.024;2022-09-03T04:05:24;4.10;;;1.13;;
30888;SDS011;51092;50.874;7.024;2022-09-03T04:06:27;2.25;;;1.30;;
30888;SDS011;51092;50.874;7.024;2022-09-03T04:07:30;2.13;;;1.25;;
30888;SDS011;51092;50.874;7.024;2022-09-03T04:08:33;2.08;;;1.25;;
30888;SDS011;51092;50.874;7.024;2022-09-03T04:09:37;4.85;;;0.95;;
30888;SDS011;51092;50.874;7.024;2022-09-03T04:10:38;2.70;;;1.40;;
30888;SDS011;51092;50.874;7.024;2022-09-03T04:11:41;1.42;;;1.02;;
30888;SDS011;51092;50.874;7.024;2022-09-03T04:12:42;1.33;;;1.00;;
30888;SDS011;51092;50.874;7.024;2022-09-03T04:13:45;1.58;;;1.02;;
30888;SDS011;51092;50.874;7.024;2022-09-03T04:14:48;1.02;;;0.90;;
30888;SDS011;51092;50.874;7.024;2022-09-03T04:15:51;1.73;;;1.00;;
30888;SDS011;51092;50.874;7.024;2022-09-03T04:16:59;2.08;;;1.23;;
30888;SDS011;51092;50.874;7.024;2022-09-03T04:18:02;1.80;;;1.00;;
30888;SDS011;51092;50.874;7.024;2022-09-03T04:19:04;2.33;;;1.10;;
30888;SDS011;51092;50.874;7.024;2022-09-03T04:20:07;3.75;;;1.55;;
30888;SDS011;51092;50.874;7.024;2022-09-03T04:21:11;2.88;;;1.33;;
30888;SDS011;51092;50.874;7.024;2022-09-03T04:22:14;2.85;;;1.20;;
30888;SDS011;51092;50.874;7.024;2022-09-03T04:23:16;0.88;;;0.88;;
30888;SDS011;51092;50.874;7.024;2022-09-03T04:24:18;1.45;;;1.08;;
30888;SDS011;51092;50.874;7.024;2022-09-03T04:25:20;2.40;;;1.20;;
30888;SDS011;51092;50.874;7.024;2022-09-03T04:26:23;2.92;;;1.10;;
30888;SDS011;51092;50.874;7.024;2022-09-03T04:27:37;2.20;;;1.30;;
30888;SDS011;51092;50.874;7.024;2022-09-03T04:28:39;4.80;;;1.20;;
30888;SDS011;51092;50.874;7.024;2022-09-03T04:29:42;1.13;;;0.90;;
30888;SDS011;51092;50.874;7.024;2022-09-03T04:30:45;2.92;;;1.02;;
30888;SDS011;51092;50.874;7.024;2022-09-03T04:31:46;4.07;;;1.40;;
30888;SDS011;51092;50.874;7.024;2022-09-03T04:33:03;3.40;;;1.17;;
30888;SDS011;51092;50.874;7.024;2022-09-03T04:34:05;3.45;;;1.13;;
30888;SDS011;51092;50.874;7.024;2022-09-03T04:35:07;1.58;;;1.08;;
30888;SDS011;51092;50.874;7.024;2022-09-03T04:36:12;2.80;;;0.98;;
30888;SDS011;51092;50.874;7.024;2022-09-03T04:37:18;3.55;;;1.30;;
30888;SDS011;51092;50.874;7.024;2022-09-03T04:38:20;2.72;;;0.98;;
30888;SDS011;51092;50.874;7.024;2022-09-03T04:39:22;1.75;;;1.20;;
30888;SDS011;51092;50.874;7.024;2022-09-03T04:40:25;1.83;;;1.23;;
30888;SDS011;51092;50.874;7.024;2022-09-03T04:41:27;3.38;;;1.25;;
30888;SDS011;51092;50.874;7.024;2022-09-03T04:42:30;2.22;;;1.30;;
30888;SDS011;51092;50.874;7.024;2022-09-03T04:43:32;2.08;;;1.23;;
30888;SDS011;51092;50.874;7.024;2022-09-03T04:44:35;1.48;;;1.13;;
30888;SDS011;51092;50.874;7.024;2022-09-03T04:45:38;1.67;;;1.25;;
30888;SDS011;51092;50.874;7.024;2022-09-03T04:46:40;1.75;;;1.08;;
30888;SDS011;51092;50.874;7.024;2022-09-03T04:47:42;2.63;;;1.30;;
30888;SDS011;51092;50.874;7.024;2022-09-03T04:48:46;1.92;;;1.20;;
30888;SDS011;51092;50.874;7.024;2022-09-03T04:49:50;2.00;;;1.30;;
30888;SDS011;51092;50.874;7.024;2022-09-03T04:50:54;4.10;;;1.38;;
30888;SDS011;51092;50.874;7.024;2022-09-03T04:52:04;1.98;;;1.00;;
30888;SDS011;51092;50.874;7.024;2022-09-03T04:53:07;1.73;;;1.02;;
30888;SDS011;51092;50.874;7.024;2022-09-03T04:54:09;2.20;;;1.42;;
30888;SDS011;51092;50.874;7.024;2022-09-03T04:55:11;2.92;;;1.58;;
30888;SDS011;51092;50.874;7.024;2022-09-03T04:56:14;3.13;;;1.15;;
30888;SDS011;51092;50.874;7.024;2022-09-03T04:57:18;1.88;;;1.15;;
30888;SDS011;51092;50.874;7.024;2022-09-03T04:58:19;2.08;;;1.10;;
30888;SDS011;51092;50.874;7.024;2022-09-03T04:59:22;1.17;;;1.05;;
30888;SDS011;51092;50.874;7.024;2022-09-03T05:00:23;1.75;;;1.05;;
30888;SDS011;51092;50.874;7.024;2022-09-03T05:01:27;3.42;;;1.17;;
30888;SDS011;51092;50.874;7.024;2022-09-03T05:02:30;1.73;;;1.27;;
30888;SDS011;51092;50.874;7.024;2022-09-03T05:03:32;1.58;;;1.10;;
30888;SDS011;51092;50.874;7.024;2022-09-03T05:04:34;1.20;;;1.10;;
30888;SDS011;51092;50.874;7.024;2022-09-03T05:05:39;2.25;;;1.23;;
30888;SDS011;51092;50.874;7.024;2022-09-03T05:06:41;2.00;;;1.40;;
30888;SDS011;51092;50.874;7.024;2022-09-03T05:07:46;2.33;;;1.25;;
30888;SDS011;51092;50.874;7.024;2022-09-03T05:08:47;2.50;;;1.25;;
30888;SDS011;51092;50.874;7.024;2022-09-03T05:09:50;3.05;;;1.15;;
30888;SDS011;51092;50.874;7.024;2022-09-03T05:10:56;2.08;;;1.33;;
30888;SDS011;51092;50.874;7.024;2022-09-03T05:12:00;3.13;;;1.30;;
30888;SDS011;51092;50.874;7.024;2022-09-03T05:13:02;1.27;;;1.17;;
30888;SDS011;51092;50.874;7.024;2022-09-03T05:14:06;1.40;;;1.10;;
30888;SDS011;51092;50.874;7.024;2022-09-03T05:15:11;1.65;;;0.98;;
30888;SDS011;51092;50.874;7.024;2022-09-03T05:16:14;2.38;;;1.10;;
30888;SDS011;51092;50.874;7.024;2022-09-03T05:17:16;6.10;;;1.33;;
30888;SDS011;51092;50.874;7.024;2022-09-03T05:18:19;1.83;;;0.95;;
30888;SDS011;51092;50.874;7.024;2022-09-03T05:19:20;4.55;;;1.27;;
30888;SDS011;51092;50.874;7.024;2022-09-03T05:20:23;1.67;;;1.30;;
30888;SDS011;51092;50.874;7.024;2022-09-03T05:21:25;1.88;;;1.30;;
30888;SDS011;51092;50.874;7.024;2022-09-03T05:22:28;4.03;;;1.10;;
30888;SDS011;51092;50.874;7.024;2022-09-03T05:23:38;2.90;;;1.33;;
30888;SDS011;51092;50.874;7.024;2022-09-03T05:24:42;3.47;;;1.00;;
30888;SDS011;51092;50.874;7.024;2022-09-03T05:25:53;2.72;;;1.15;;
30888;SDS011;51092;50.874;7.024;2022-09-03T05:26:57;4.30;;;1.10;;
30888;SDS011;51092;50.874;7.024;2022-09-03T05:27:59;3.10;;;1.10;;
30888;SDS011;51092;50.874;7.024;2022-09-03T05:29:03;1.83;;;1.05;;
30888;SDS011;51092;50.874;7.024;2022-09-03T05:30:07;5.93;;;1.35;;
30888;SDS011;51092;50.874;7.024;2022-09-03T05:31:11;2.22;;;1.08;;
30888;SDS011;51092;50.874;7.024;2022-09-03T05:32:14;3.88;;;1.00;;
30888;SDS011;51092;50.874;7.024;2022-09-03T05:33:17;2.58;;;1.20;;
30888;SDS011;51092;50.874;7.024;2022-09-03T05:34:18;1.92;;;1.10;;
30888;SDS011;51092;50.874;7.024;2022-09-03T05:35:21;3.05;;;1.20;;
30888;SDS011;51092;50.874;7.024;2022-09-03T05:36:23;2.60;;;1.20;;
30888;SDS011;51092;50.874;7.024;2022-09-03T05:37:27;3.63;;;1.30;;
30888;SDS011;51092;50.874;7.024;2022-09-03T05:38:29;2.72;;;1.20;;
30888;SDS011;51092;50.874;7.024;2022-09-03T05:39:32;1.75;;;1.00;;
30888;SDS011;51092;50.874;7.024;2022-09-03T05:40:34;1.85;;;0.98;;
30888;SDS011;51092;50.874;7.024;2022-09-03T05:41:37;3.28;;;1.00;;
30888;SDS011;51092;50.874;7.024;2022-09-03T05:42:40;2.50;;;1.13;;
30888;SDS011;51092;50.874;7.024;2022-09-03T05:43:41;2.33;;;1.15;;
30888;SDS011;51092;50.874;7.024;2022-09-03T05:44:44;2.05;;;1.00;;
30888;SDS011;51092;50.874;7.024;2022-09-03T05:45:45;1.38;;;0.90;;
30888;SDS011;51092;50.874;7.024;2022-09-03T05:46:49;2.88;;;1.15;;
30888;SDS011;51092;50.874;7.024;2022-09-03T05:47:51;1.45;;;1.02;;
30888;SDS011;51092;50.874;7.024;2022-09-03T05:48:54;4.43;;;1.10;;
30888;SDS011;51092;50.874;7.024;2022-09-03T05:49:55;2.63;;;0.90;;
30888;SDS011;51092;50.874;7.024;2022-09-03T05:50:58;1.90;;;1.10;;
30888;SDS011;51092;50.874;7.024;2022-09-03T05:52:00;1.33;;;0.98;;
30888;SDS011;51092;50.874;7.024;2022-09-03T05:53:03;2.53;;;1.30;;
30888;SDS011;51092;50.874;7.024;2022-09-03T05:54:05;1.73;;;1.10;;
30888;SDS011;51092;50.874;7.024;2022-09-03T05:55:10;1.25;;;0.93;;
30888;SDS011;51092;50.874;7.024;2022-09-03T05:56:12;2.20;;;1.42;;
30888;SDS011;51092;50.874;7.024;2022-09-03T05:57:17;2.20;;;1.20;;
30888;SDS011;51092;50.874;7.024;2022-09-03T05:58:20;2.70;;;1.08;;
30888;SDS011;51092;50.874;7.024;2022-09-03T05:59:21;2.20;;;1.27;;
30888;SDS011;51092;50.874;7.024;2022-09-03T06:00:24;3.33;;;1.13;;
30888;SDS011;51092;50.874;7.024;2022-09-03T06:01:27;2.42;;;1.10;;
30888;SDS011;51092;50.874;7.024;2022-09-03T06:02:30;6.82;;;1.13;;
30888;SDS011;51092;50.874;7.024;2022-09-03T06:03:32;2.25;;;1.20;;
30888;SDS011;51092;50.874;7.024;2022-09-03T06:04:35;1.50;;;0.98;;
30888;SDS011;51092;50.874;7.024;2022-09-03T06:05:37;2.25;;;1.35;;
30888;SDS011;51092;50.874;7.024;2022-09-03T06:06:39;6.80;;;1.08;;
30888;SDS011;51092;50.874;7.024;2022-09-03T06:07:43;1.58;;;0.98;;
30888;SDS011;51092;50.874;7.024;2022-09-03T06:08:45;5.20;;;1.10;;
30888;SDS011;51092;50.874;7.024;2022-09-03T06:09:50;1.65;;;1.02;;
30888;SDS011;51092;50.874;7.024;2022-09-03T06:10:57;3.40;;;1.13;;
30888;SDS011;51092;50.874;7.024;2022-09-03T06:11:58;1.10;;;1.00;;
30888;SDS011;51092;50.874;7.024;2022-09-03T06:13:01;1.55;;;1.00;;
30888;SDS011;51092;50.874;7.024;2022-09-03T06:14:05;3.53;;;1.10;;
30888;SDS011;51092;50.874;7.024;2022-09-03T06:15:09;2.80;;;1.15;;
30888;SDS011;51092;50.874;7.024;2022-09-03T06:16:12;2.65;;;1.17;;
30888;SDS011;51092;50.874;7.024;2022-09-03T06:17:13;2.13;;;1.08;;
30888;SDS011;51092;50.874;7.024;2022-09-03T06:18:16;4.47;;;1.20;;
30888;SDS011;51092;50.874;7.024;2022-09-03T06:19:17;2.25;;;1.35;;
30888;SDS011;51092;50.874;7.024;2022-09-03T06:20:20;1.85;;;1.20;;
30888;SDS011;51092;50.874;7.024;2022-09-03T06:21:22;0.98;;;0.90;;
30888;SDS011;51092;50.874;7.024;2022-09-03T06:22:24;2.80;;;1.10;;
30888;SDS011;51092;50.874;7.024;2022-09-03T06:23:28;1.20;;;0.90;;
30888;SDS011;51092;50.874;7.024;2022-09-03T06:24:31;3.83;;;1.17;;
30888;SDS011;51092;50.874;7.024;2022-09-03T06:25:36;3.28;;;1.30;;
30888;SDS011;51092;50.874;7.024;2022-09-03T06:26:39;1.98;;;1.15;;
30888;SDS011;51092;50.874;7.024;2022-09-03T06:27:41;2.08;;;1.10;;
30888;SDS011;51092;50.874;7.024;2022-09-03T06:28:42;2.80;;;0.95;;
30888;SDS011;51092;50.874;7.024;2022-09-03T06:29:45;1.83;;;1.00;;
30888;SDS011;51092;50.874;7.024;2022-09-03T06:30:46;3.42;;;1.20;;
30888;SDS011;51092;50.874;7.024;2022-09-03T06:31:48;1.55;;;0.98;;
30888;SDS011;51092;50.874;7.024;2022-09-03T06:32:50;1.13;;;1.02;;
30888;SDS011;51092;50.874;7.024;2022-09-03T06:33:53;1.88;;;0.98;;
30888;SDS011;51092;50.874;7.024;2022-09-03T06:34:55;2.92;;;1.23;;
30888;SDS011;51092;50.874;7.024;2022-09-03T06:35:58;2.95;;;1.35;;
30888;SDS011;51092;50.874;7.024;2022-09-03T06:37:00;1.35;;;1.10;;
30888;SDS011;51092;50.874;7.024;2022-09-03T06:38:03;2.80;;;1.00;;
30888;SDS011;51092;50.874;7.024;2022-09-03T06:39:04;1.67;;;1.35;;